Terminal Aerodrome Forecast
Issued by NWS

Home | Current Version | Previous Version | Text Only | Print | Product List | Glossary On
Versions: 1 2 3 4 5 6 7 8 9 10 11 12 13 14 15 16 17 18 19 20 21 22 23 24 25 26 27
000
FTPQ31 PGUM 042320
TAFGUM
TAF

TAF
PTYA 042320Z 0500/0524 26010KT P6SM VCTS BKN015CB OVC120
      TEMPO 0500/0501 3SM TSRA BKN014CB OVC100
     FM050200 26010KT P6SM VCSH SCT015 BKN120 OVC300
      TEMPO 0502/0506 -SHRA BKN015 BKN100=

USA.gov is the U.S. government's official web portal to all federal, state and local government web resources and services.